sensor_id;sensor_type;location;lat;lon;timestamp;P1;durP1;ratioP1;P2;durP2;ratioP2
32445;SDS011;18899;50.748;7.102;2022-11-15T00:01:34;12.98;;;5.63;;
32445;SDS011;18899;50.748;7.102;2022-11-15T00:04:02;11.88;;;6.05;;
32445;SDS011;18899;50.748;7.102;2022-11-15T00:06:29;11.40;;;5.78;;
32445;SDS011;18899;50.748;7.102;2022-11-15T00:08:54;10.73;;;5.70;;
32445;SDS011;18899;50.748;7.102;2022-11-15T00:11:22;11.40;;;5.55;;
32445;SDS011;18899;50.748;7.102;2022-11-15T00:13:48;10.25;;;5.95;;
32445;SDS011;18899;50.748;7.102;2022-11-15T00:16:13;11.95;;;6.07;;
32445;SDS011;18899;50.748;7.102;2022-11-15T00:18:39;10.63;;;5.70;;
32445;SDS011;18899;50.748;7.102;2022-11-15T00:21:06;11.30;;;6.18;;
32445;SDS011;18899;50.748;7.102;2022-11-15T00:23:33;11.80;;;5.97;;
32445;SDS011;18899;50.748;7.102;2022-11-15T00:25:59;11.68;;;6.45;;
32445;SDS011;18899;50.748;7.102;2022-11-15T00:28:25;12.07;;;5.75;;
32445;SDS011;18899;50.748;7.102;2022-11-15T00:30:51;9.93;;;6.05;;
32445;SDS011;18899;50.748;7.102;2022-11-15T00:33:16;10.00;;;5.93;;
32445;SDS011;18899;50.748;7.102;2022-11-15T00:35:42;13.68;;;6.38;;
32445;SDS011;18899;50.748;7.102;2022-11-15T00:38:08;12.23;;;6.70;;
32445;SDS011;18899;50.748;7.102;2022-11-15T00:40:33;13.43;;;6.20;;
32445;SDS011;18899;50.748;7.102;2022-11-15T00:42:59;10.07;;;5.95;;
32445;SDS011;18899;50.748;7.102;2022-11-15T00:45:25;12.05;;;5.82;;
32445;SDS011;18899;50.748;7.102;2022-11-15T00:47:51;11.68;;;5.72;;
32445;SDS011;18899;50.748;7.102;2022-11-15T00:50:16;8.32;;;5.78;;
32445;SDS011;18899;50.748;7.102;2022-11-15T00:52:42;11.02;;;6.15;;
32445;SDS011;18899;50.748;7.102;2022-11-15T00:55:09;12.02;;;6.05;;
32445;SDS011;18899;50.748;7.102;2022-11-15T00:57:39;10.63;;;5.43;;
32445;SDS011;18899;50.748;7.102;2022-11-15T01:00:05;12.95;;;6.40;;
32445;SDS011;18899;50.748;7.102;2022-11-15T01:02:32;11.10;;;5.57;;
32445;SDS011;18899;50.748;7.102;2022-11-15T01:04:57;10.27;;;5.47;;
32445;SDS011;18899;50.748;7.102;2022-11-15T01:07:23;11.68;;;6.00;;
32445;SDS011;18899;50.748;7.102;2022-11-15T01:09:48;11.65;;;6.00;;
32445;SDS011;18899;50.748;7.102;2022-11-15T01:12:14;10.20;;;5.45;;
32445;SDS011;18899;50.748;7.102;2022-11-15T01:14:39;10.98;;;6.10;;
32445;SDS011;18899;50.748;7.102;2022-11-15T01:17:05;11.65;;;6.35;;
32445;SDS011;18899;50.748;7.102;2022-11-15T01:19:30;8.73;;;5.18;;
32445;SDS011;18899;50.748;7.102;2022-11-15T01:21:56;10.05;;;6.13;;
32445;SDS011;18899;50.748;7.102;2022-11-15T01:24:21;9.77;;;5.57;;
32445;SDS011;18899;50.748;7.102;2022-11-15T01:26:47;10.73;;;5.82;;
32445;SDS011;18899;50.748;7.102;2022-11-15T01:29:12;11.90;;;5.50;;
32445;SDS011;18899;50.748;7.102;2022-11-15T01:31:38;10.50;;;5.03;;
32445;SDS011;18899;50.748;7.102;2022-11-15T01:34:03;9.73;;;5.43;;
32445;SDS011;18899;50.748;7.102;2022-11-15T01:36:29;9.10;;;5.35;;
32445;SDS011;18899;50.748;7.102;2022-11-15T01:38:55;8.48;;;5.35;;
32445;SDS011;18899;50.748;7.102;2022-11-15T01:41:26;8.85;;;4.82;;
32445;SDS011;18899;50.748;7.102;2022-11-15T01:43:55;8.32;;;5.00;;
32445;SDS011;18899;50.748;7.102;2022-11-15T01:48:59;8.70;;;5.10;;
32445;SDS011;18899;50.748;7.102;2022-11-15T01:51:30;9.82;;;5.30;;
32445;SDS011;18899;50.748;7.102;2022-11-15T01:53:59;11.63;;;5.57;;
32445;SDS011;18899;50.748;7.102;2022-11-15T01:56:36;11.00;;;5.45;;
32445;SDS011;18899;50.748;7.102;2022-11-15T01:59:07;10.07;;;4.72;;
32445;SDS011;18899;50.748;7.102;2022-11-15T02:01:33;9.38;;;4.88;;
32445;SDS011;18899;50.748;7.102;2022-11-15T02:06:42;7.95;;;5.30;;
32445;SDS011;18899;50.748;7.102;2022-11-15T02:09:09;7.95;;;5.05;;
32445;SDS011;18899;50.748;7.102;2022-11-15T02:11:35;7.75;;;4.68;;
32445;SDS011;18899;50.748;7.102;2022-11-15T02:14:01;6.78;;;4.68;;
32445;SDS011;18899;50.748;7.102;2022-11-15T02:16:52;8.32;;;4.75;;
32445;SDS011;18899;50.748;7.102;2022-11-15T02:19:47;6.70;;;4.30;;
32445;SDS011;18899;50.748;7.102;2022-11-15T02:28:27;9.18;;;4.55;;
32445;SDS011;18899;50.748;7.102;2022-11-15T02:34:05;7.53;;;4.10;;
32445;SDS011;18899;50.748;7.102;2022-11-15T02:36:43;8.57;;;4.18;;
32445;SDS011;18899;50.748;7.102;2022-11-15T02:39:35;7.90;;;4.28;;
32445;SDS011;18899;50.748;7.102;2022-11-15T02:42:26;6.00;;;3.80;;
32445;SDS011;18899;50.748;7.102;2022-11-15T02:45:23;7.07;;;3.97;;
32445;SDS011;18899;50.748;7.102;2022-11-15T02:47:54;8.95;;;4.05;;
32445;SDS011;18899;50.748;7.102;2022-11-15T02:50:27;6.95;;;3.95;;
32445;SDS011;18899;50.748;7.102;2022-11-15T02:52:55;8.80;;;3.78;;
32445;SDS011;18899;50.748;7.102;2022-11-15T03:00:39;5.25;;;3.72;;
32445;SDS011;18899;50.748;7.102;2022-11-15T03:06:08;7.90;;;3.95;;
32445;SDS011;18899;50.748;7.102;2022-11-15T03:09:07;9.70;;;3.80;;
32445;SDS011;18899;50.748;7.102;2022-11-15T03:12:28;6.32;;;3.90;;
32445;SDS011;18899;50.748;7.102;2022-11-15T03:15:01;5.50;;;4.00;;
32445;SDS011;18899;50.748;7.102;2022-11-15T03:17:52;6.40;;;3.88;;
32445;SDS011;18899;50.748;7.102;2022-11-15T03:20:24;6.63;;;4.35;;
32445;SDS011;18899;50.748;7.102;2022-11-15T03:22:52;6.03;;;3.70;;
32445;SDS011;18899;50.748;7.102;2022-11-15T03:25:19;7.28;;;4.53;;
32445;SDS011;18899;50.748;7.102;2022-11-15T03:27:48;7.68;;;4.30;;
32445;SDS011;18899;50.748;7.102;2022-11-15T03:30:17;11.43;;;4.43;;
32445;SDS011;18899;50.748;7.102;2022-11-15T03:32:47;8.98;;;4.90;;
32445;SDS011;18899;50.748;7.102;2022-11-15T03:35:18;9.57;;;5.32;;
32445;SDS011;18899;50.748;7.102;2022-11-15T03:37:51;8.07;;;4.50;;
32445;SDS011;18899;50.748;7.102;2022-11-15T03:40:22;9.55;;;4.68;;
32445;SDS011;18899;50.748;7.102;2022-11-15T03:43:20;9.48;;;4.82;;
32445;SDS011;18899;50.748;7.102;2022-11-15T03:45:58;7.70;;;4.70;;
32445;SDS011;18899;50.748;7.102;2022-11-15T03:48:37;6.20;;;4.15;;
32445;SDS011;18899;50.748;7.102;2022-11-15T03:51:08;8.40;;;4.30;;
32445;SDS011;18899;50.748;7.102;2022-11-15T03:53:35;5.40;;;4.03;;
32445;SDS011;18899;50.748;7.102;2022-11-15T03:56:00;9.85;;;4.43;;
32445;SDS011;18899;50.748;7.102;2022-11-15T03:58:26;6.95;;;4.53;;
32445;SDS011;18899;50.748;7.102;2022-11-15T04:00:51;5.78;;;4.03;;
32445;SDS011;18899;50.748;7.102;2022-11-15T04:03:17;7.07;;;4.00;;
32445;SDS011;18899;50.748;7.102;2022-11-15T04:05:43;7.13;;;4.03;;
32445;SDS011;18899;50.748;7.102;2022-11-15T04:08:09;10.07;;;4.07;;
32445;SDS011;18899;50.748;7.102;2022-11-15T04:10:34;6.07;;;4.30;;
32445;SDS011;18899;50.748;7.102;2022-11-15T04:13:01;9.25;;;4.20;;
32445;SDS011;18899;50.748;7.102;2022-11-15T04:15:27;6.63;;;4.25;;
32445;SDS011;18899;50.748;7.102;2022-11-15T04:17:55;7.05;;;4.03;;
32445;SDS011;18899;50.748;7.102;2022-11-15T04:20:22;6.28;;;4.43;;
32445;SDS011;18899;50.748;7.102;2022-11-15T04:23:10;5.75;;;3.90;;
32445;SDS011;18899;50.748;7.102;2022-11-15T04:26:00;6.95;;;4.18;;
32445;SDS011;18899;50.748;7.102;2022-11-15T04:28:28;6.38;;;3.92;;
32445;SDS011;18899;50.748;7.102;2022-11-15T04:30:55;7.15;;;4.55;;
32445;SDS011;18899;50.748;7.102;2022-11-15T04:33:21;7.95;;;4.70;;
32445;SDS011;18899;50.748;7.102;2022-11-15T04:35:46;6.57;;;4.25;;
32445;SDS011;18899;50.748;7.102;2022-11-15T04:38:32;9.32;;;4.72;;
32445;SDS011;18899;50.748;7.102;2022-11-15T04:40:58;9.30;;;4.63;;
32445;SDS011;18899;50.748;7.102;2022-11-15T04:43:23;8.45;;;4.63;;
32445;SDS011;18899;50.748;7.102;2022-11-15T04:45:49;7.28;;;4.10;;
32445;SDS011;18899;50.748;7.102;2022-11-15T04:48:14;7.30;;;4.60;;
32445;SDS011;18899;50.748;7.102;2022-11-15T04:50:40;9.60;;;4.50;;
32445;SDS011;18899;50.748;7.102;2022-11-15T04:53:05;7.85;;;4.32;;
32445;SDS011;18899;50.748;7.102;2022-11-15T04:55:31;8.07;;;4.20;;
32445;SDS011;18899;50.748;7.102;2022-11-15T04:57:57;7.20;;;4.13;;
32445;SDS011;18899;50.748;7.102;2022-11-15T05:00:24;7.00;;;4.70;;
32445;SDS011;18899;50.748;7.102;2022-11-15T05:02:50;11.30;;;4.28;;
32445;SDS011;18899;50.748;7.102;2022-11-15T05:05:35;6.05;;;3.83;;
32445;SDS011;18899;50.748;7.102;2022-11-15T05:08:01;6.53;;;3.90;;
32445;SDS011;18899;50.748;7.102;2022-11-15T05:10:26;5.32;;;3.30;;
32445;SDS011;18899;50.748;7.102;2022-11-15T05:12:52;7.25;;;3.42;;
32445;SDS011;18899;50.748;7.102;2022-11-15T05:15:17;7.10;;;3.85;;
32445;SDS011;18899;50.748;7.102;2022-11-15T05:17:43;5.63;;;3.13;;
32445;SDS011;18899;50.748;7.102;2022-11-15T05:20:08;5.40;;;3.10;;
32445;SDS011;18899;50.748;7.102;2022-11-15T05:22:34;6.80;;;3.35;;
32445;SDS011;18899;50.748;7.102;2022-11-15T05:25:00;5.10;;;2.72;;
32445;SDS011;18899;50.748;7.102;2022-11-15T05:27:25;4.38;;;3.05;;
32445;SDS011;18899;50.748;7.102;2022-11-15T05:29:51;5.32;;;4.00;;
32445;SDS011;18899;50.748;7.102;2022-11-15T05:32:17;5.07;;;2.78;;
32445;SDS011;18899;50.748;7.102;2022-11-15T05:34:43;4.68;;;2.80;;
32445;SDS011;18899;50.748;7.102;2022-11-15T05:37:09;4.68;;;3.00;;
32445;SDS011;18899;50.748;7.102;2022-11-15T05:39:35;7.28;;;3.53;;
32445;SDS011;18899;50.748;7.102;2022-11-15T05:42:01;4.95;;;2.85;;
32445;SDS011;18899;50.748;7.102;2022-11-15T05:44:33;6.00;;;3.22;;
32445;SDS011;18899;50.748;7.102;2022-11-15T05:47:01;4.40;;;3.10;;
32445;SDS011;18899;50.748;7.102;2022-11-15T05:49:29;6.00;;;2.92;;
32445;SDS011;18899;50.748;7.102;2022-11-15T05:51:57;4.47;;;3.08;;
32445;SDS011;18899;50.748;7.102;2022-11-15T05:54:23;8.35;;;3.40;;
32445;SDS011;18899;50.748;7.102;2022-11-15T05:56:50;5.55;;;2.90;;
32445;SDS011;18899;50.748;7.102;2022-11-15T05:59:16;7.57;;;3.58;;
32445;SDS011;18899;50.748;7.102;2022-11-15T06:01:42;6.63;;;3.00;;
32445;SDS011;18899;50.748;7.102;2022-11-15T06:04:08;6.50;;;3.33;;
32445;SDS011;18899;50.748;7.102;2022-11-15T06:06:33;4.65;;;3.25;;
32445;SDS011;18899;50.748;7.102;2022-11-15T06:08:59;6.35;;;3.20;;
32445;SDS011;18899;50.748;7.102;2022-11-15T06:11:24;6.07;;;3.45;;
32445;SDS011;18899;50.748;7.102;2022-11-15T06:13:50;4.38;;;2.92;;
32445;SDS011;18899;50.748;7.102;2022-11-15T06:16:16;4.72;;;2.70;;
32445;SDS011;18899;50.748;7.102;2022-11-15T06:18:42;7.80;;;3.00;;
32445;SDS011;18899;50.748;7.102;2022-11-15T06:21:07;4.82;;;3.10;;
32445;SDS011;18899;50.748;7.102;2022-11-15T06:23:33;4.00;;;3.00;;
32445;SDS011;18899;50.748;7.102;2022-11-15T06:26:00;4.82;;;3.20;;
32445;SDS011;18899;50.748;7.102;2022-11-15T06:28:30;5.85;;;2.97;;
32445;SDS011;18899;50.748;7.102;2022-11-15T06:31:01;7.53;;;3.50;;
32445;SDS011;18899;50.748;7.102;2022-11-15T06:33:28;4.55;;;2.80;;
32445;SDS011;18899;50.748;7.102;2022-11-15T06:35:53;5.20;;;2.88;;
32445;SDS011;18899;50.748;7.102;2022-11-15T06:38:19;4.93;;;2.90;;
32445;SDS011;18899;50.748;7.102;2022-11-15T06:40:44;5.57;;;3.05;;
32445;SDS011;18899;50.748;7.102;2022-11-15T06:43:10;4.45;;;2.65;;
32445;SDS011;18899;50.748;7.102;2022-11-15T06:45:36;3.88;;;2.47;;
32445;SDS011;18899;50.748;7.102;2022-11-15T06:48:01;4.75;;;2.63;;
32445;SDS011;18899;50.748;7.102;2022-11-15T06:50:27;4.43;;;2.65;;
32445;SDS011;18899;50.748;7.102;2022-11-15T06:52:53;5.45;;;2.92;;
32445;SDS011;18899;50.748;7.102;2022-11-15T06:55:19;3.47;;;2.33;;
32445;SDS011;18899;50.748;7.102;2022-11-15T06:57:49;3.85;;;2.40;;
32445;SDS011;18899;50.748;7.102;2022-11-15T07:00:16;7.57;;;3.07;;
32445;SDS011;18899;50.748;7.102;2022-11-15T07:02:46;7.38;;;2.70;;
32445;SDS011;18899;50.748;7.102;2022-11-15T07:05:12;3.10;;;2.08;;
32445;SDS011;18899;50.748;7.102;2022-11-15T07:07:38;4.65;;;2.70;;
32445;SDS011;18899;50.748;7.102;2022-11-15T07:10:05;3.95;;;2.58;;
32445;SDS011;18899;50.748;7.102;2022-11-15T07:12:31;6.80;;;2.53;;
32445;SDS011;18899;50.748;7.102;2022-11-15T07:14:57;6.03;;;2.80;;
32445;SDS011;18899;50.748;7.102;2022-11-15T07:17:22;4.38;;;2.13;;
32445;SDS011;18899;50.748;7.102;2022-11-15T07:19:48;5.97;;;2.60;;
32445;SDS011;18899;50.748;7.102;2022-11-15T07:22:13;3.47;;;2.13;;
32445;SDS011;18899;50.748;7.102;2022-11-15T07:24:39;5.53;;;2.55;;
32445;SDS011;18899;50.748;7.102;2022-11-15T07:27:04;4.35;;;2.72;;
32445;SDS011;18899;50.748;7.102;2022-11-15T07:29:30;5.32;;;2.50;;
32445;SDS011;18899;50.748;7.102;2022-11-15T07:31:55;6.88;;;2.47;;
32445;SDS011;18899;50.748;7.102;2022-11-15T07:34:21;3.72;;;2.20;;
32445;SDS011;18899;50.748;7.102;2022-11-15T07:36:47;4.45;;;2.22;;
32445;SDS011;18899;50.748;7.102;2022-11-15T07:39:12;6.22;;;2.00;;
32445;SDS011;18899;50.748;7.102;2022-11-15T07:41:39;3.38;;;2.35;;
32445;SDS011;18899;50.748;7.102;2022-11-15T07:44:04;3.92;;;2.17;;
32445;SDS011;18899;50.748;7.102;2022-11-15T07:46:30;4.97;;;2.33;;
32445;SDS011;18899;50.748;7.102;2022-11-15T07:48:56;3.72;;;2.10;;
32445;SDS011;18899;50.748;7.102;2022-11-15T07:51:22;2.83;;;1.83;;
32445;SDS011;18899;50.748;7.102;2022-11-15T07:53:47;3.60;;;2.17;;
32445;SDS011;18899;50.748;7.102;2022-11-15T07:56:13;2.95;;;1.80;;
32445;SDS011;18899;50.748;7.102;2022-11-15T07:58:38;3.45;;;2.05;;
32445;SDS011;18899;50.748;7.102;2022-11-15T08:01:05;3.35;;;2.08;;
32445;SDS011;18899;50.748;7.102;2022-11-15T08:03:31;5.32;;;1.83;;
32445;SDS011;18899;50.748;7.102;2022-11-15T08:05:58;5.32;;;2.22;;
32445;SDS011;18899;50.748;7.102;2022-11-15T08:08:23;3.97;;;2.05;;
32445;SDS011;18899;50.748;7.102;2022-11-15T08:10:49;6.40;;;2.08;;
32445;SDS011;18899;50.748;7.102;2022-11-15T08:13:14;4.70;;;2.00;;
32445;SDS011;18899;50.748;7.102;2022-11-15T08:15:40;5.93;;;2.00;;
32445;SDS011;18899;50.748;7.102;2022-11-15T08:18:12;3.45;;;2.13;;
32445;SDS011;18899;50.748;7.102;2022-11-15T08:20:39;3.28;;;1.80;;
32445;SDS011;18899;50.748;7.102;2022-11-15T08:23:06;2.50;;;1.50;;
32445;SDS011;18899;50.748;7.102;2022-11-15T08:25:33;4.47;;;1.60;;
32445;SDS011;18899;50.748;7.102;2022-11-15T08:28:00;3.90;;;1.55;;
32445;SDS011;18899;50.748;7.102;2022-11-15T08:30:28;3.45;;;1.90;;
32445;SDS011;18899;50.748;7.102;2022-11-15T08:32:55;6.55;;;1.65;;
32445;SDS011;18899;50.748;7.102;2022-11-15T08:35:22;3.28;;;1.27;;
32445;SDS011;18899;50.748;7.102;2022-11-15T08:37:48;4.47;;;1.33;;
32445;SDS011;18899;50.748;7.102;2022-11-15T08:40:14;4.68;;;1.80;;
32445;SDS011;18899;50.748;7.102;2022-11-15T08:42:40;3.13;;;1.70;;
32445;SDS011;18899;50.748;7.102;2022-11-15T08:45:07;6.13;;;1.70;;
32445;SDS011;18899;50.748;7.102;2022-11-15T08:47:33;5.38;;;1.75;;
32445;SDS011;18899;50.748;7.102;2022-11-15T08:49:59;2.85;;;1.58;;
32445;SDS011;18899;50.748;7.102;2022-11-15T08:52:24;2.20;;;1.20;;
32445;SDS011;18899;50.748;7.102;2022-11-15T08:54:50;4.05;;;1.40;;
32445;SDS011;18899;50.748;7.102;2022-11-15T08:57:15;2.90;;;1.13;;
32445;SDS011;18899;50.748;7.102;2022-11-15T08:59:41;2.78;;;1.50;;
32445;SDS011;18899;50.748;7.102;2022-11-15T09:02:10;2.85;;;1.13;;
32445;SDS011;18899;50.748;7.102;2022-11-15T09:07:04;5.07;;;2.20;;
32445;SDS011;18899;50.748;7.102;2022-11-15T09:09:29;4.00;;;1.60;;
32445;SDS011;18899;50.748;7.102;2022-11-15T09:11:55;4.25;;;1.15;;
32445;SDS011;18899;50.748;7.102;2022-11-15T09:14:20;1.60;;;1.02;;
32445;SDS011;18899;50.748;7.102;2022-11-15T09:16:46;2.17;;;0.93;;
32445;SDS011;18899;50.748;7.102;2022-11-15T09:19:11;2.13;;;0.93;;
32445;SDS011;18899;50.748;7.102;2022-11-15T09:21:39;3.50;;;0.90;;
32445;SDS011;18899;50.748;7.102;2022-11-15T09:24:05;2.03;;;0.90;;
32445;SDS011;18899;50.748;7.102;2022-11-15T09:26:30;3.40;;;0.93;;
32445;SDS011;18899;50.748;7.102;2022-11-15T09:28:56;2.92;;;1.20;;
32445;SDS011;18899;50.748;7.102;2022-11-15T09:31:21;3.75;;;0.98;;
32445;SDS011;18899;50.748;7.102;2022-11-15T09:33:47;3.08;;;0.80;;
32445;SDS011;18899;50.748;7.102;2022-11-15T09:36:13;1.65;;;0.93;;
32445;SDS011;18899;50.748;7.102;2022-11-15T09:38:38;0.70;;;0.52;;
32445;SDS011;18899;50.748;7.102;2022-11-15T09:46:40;4.72;;;0.75;;
32445;SDS011;18899;50.748;7.102;2022-11-15T09:49:11;2.20;;;0.75;;
32445;SDS011;18899;50.748;7.102;2022-11-15T09:51:41;1.17;;;0.60;;
32445;SDS011;18899;50.748;7.102;2022-11-15T09:54:33;1.98;;;0.70;;
32445;SDS011;18899;50.748;7.102;2022-11-15T09:57:09;2.00;;;0.60;;
32445;SDS011;18899;50.748;7.102;2022-11-15T10:05:01;3.08;;;0.50;;
32445;SDS011;18899;50.748;7.102;2022-11-15T10:07:28;1.20;;;0.60;;
32445;SDS011;18899;50.748;7.102;2022-11-15T10:10:09;2.95;;;0.60;;
32445;SDS011;18899;50.748;7.102;2022-11-15T10:12:45;1.38;;;0.68;;
32445;SDS011;18899;50.748;7.102;2022-11-15T10:15:14;1.63;;;0.50;;
32445;SDS011;18899;50.748;7.102;2022-11-15T10:23:10;2.25;;;0.40;;
32445;SDS011;18899;50.748;7.102;2022-11-15T10:25:38;2.63;;;0.60;;
32445;SDS011;18899;50.748;7.102;2022-11-15T10:28:15;1.55;;;0.63;;
32445;SDS011;18899;50.748;7.102;2022-11-15T10:30:47;3.35;;;0.60;;
32445;SDS011;18899;50.748;7.102;2022-11-15T10:35:46;2.15;;;0.68;;
32445;SDS011;18899;50.748;7.102;2022-11-15T10:38:12;3.20;;;0.57;;
32445;SDS011;18899;50.748;7.102;2022-11-15T10:40:38;1.23;;;0.52;;
32445;SDS011;18899;50.748;7.102;2022-11-15T10:43:10;3.67;;;0.55;;
32445;SDS011;18899;50.748;7.102;2022-11-15T10:45:39;1.90;;;0.60;;
32445;SDS011;18899;50.748;7.102;2022-11-15T10:53:02;1.73;;;0.65;;
32445;SDS011;18899;50.748;7.102;2022-11-15T10:55:29;3.63;;;0.52;;
32445;SDS011;18899;50.748;7.102;2022-11-15T10:58:05;1.98;;;0.45;;
32445;SDS011;18899;50.748;7.102;2022-11-15T11:00:52;2.35;;;0.50;;
32445;SDS011;18899;50.748;7.102;2022-11-15T11:03:28;2.90;;;0.73;;
32445;SDS011;18899;50.748;7.102;2022-11-15T11:06:18;8.23;;;0.65;;
32445;SDS011;18899;50.748;7.102;2022-11-15T11:08:57;2.05;;;0.63;;
32445;SDS011;18899;50.748;7.102;2022-11-15T11:11:23;3.63;;;0.65;;
32445;SDS011;18899;50.748;7.102;2022-11-15T11:13:49;2.15;;;0.40;;
32445;SDS011;18899;50.748;7.102;2022-11-15T11:21:57;1.85;;;0.60;;
32445;SDS011;18899;50.748;7.102;2022-11-15T11:27:21;2.42;;;0.73;;
32445;SDS011;18899;50.748;7.102;2022-11-15T11:30:38;4.10;;;0.50;;
32445;SDS011;18899;50.748;7.102;2022-11-15T11:33:05;2.20;;;0.50;;
32445;SDS011;18899;50.748;7.102;2022-11-15T11:35:43;0.82;;;0.50;;
32445;SDS011;18899;50.748;7.102;2022-11-15T11:41:03;1.40;;;0.50;;
32445;SDS011;18899;50.748;7.102;2022-11-15T11:46:49;5.00;;;0.77;;
32445;SDS011;18899;50.748;7.102;2022-11-15T11:57:44;1.52;;;0.50;;
32445;SDS011;18899;50.748;7.102;2022-11-15T12:00:19;5.93;;;0.88;;
32445;SDS011;18899;50.748;7.102;2022-11-15T12:02:48;1.83;;;0.80;;
32445;SDS011;18899;50.748;7.102;2022-11-15T12:05:35;1.00;;;0.75;;
32445;SDS011;18899;50.748;7.102;2022-11-15T12:08:17;2.53;;;0.90;;
32445;SDS011;18899;50.748;7.102;2022-11-15T12:10:48;3.13;;;1.00;;
32445;SDS011;18899;50.748;7.102;2022-11-15T12:13:19;3.33;;;0.70;;
32445;SDS011;18899;50.748;7.102;2022-11-15T12:18:46;3.47;;;0.85;;
32445;SDS011;18899;50.748;7.102;2022-11-15T12:21:35;3.58;;;1.00;;
32445;SDS011;18899;50.748;7.102;2022-11-15T12:26:52;1.27;;;0.80;;
32445;SDS011;18899;50.748;7.102;2022-11-15T12:29:35;4.10;;;1.48;;
32445;SDS011;18899;50.748;7.102;2022-11-15T12:32:48;4.32;;;1.30;;
32445;SDS011;18899;50.748;7.102;2022-11-15T12:35:00;2.90;;;1.20;;
32445;SDS011;18899;50.748;7.102;2022-11-15T12:47:23;2.78;;;1.25;;
32445;SDS011;18899;50.748;7.102;2022-11-15T12:49:50;5.53;;;1.85;;
32445;SDS011;18899;50.748;7.102;2022-11-15T12:52:16;4.53;;;1.50;;
32445;SDS011;18899;50.748;7.102;2022-11-15T13:17:49;2.70;;;1.48;;
32445;SDS011;18899;50.748;7.102;2022-11-15T13:20:23;2.58;;;1.60;;
32445;SDS011;18899;50.748;7.102;2022-11-15T13:22:58;2.58;;;1.40;;
32445;SDS011;18899;50.748;7.102;2022-11-15T13:31:14;3.13;;;1.50;;
32445;SDS011;18899;50.748;7.102;2022-11-15T13:33:45;3.30;;;1.67;;
32445;SDS011;18899;50.748;7.102;2022-11-15T13:36:24;3.13;;;1.33;;
32445;SDS011;18899;50.748;7.102;2022-11-15T13:41:33;3.55;;;1.80;;
32445;SDS011;18899;50.748;7.102;2022-11-15T13:44:01;4.10;;;1.40;;
32445;SDS011;18899;50.748;7.102;2022-11-15T13:46:32;3.08;;;1.40;;
32445;SDS011;18899;50.748;7.102;2022-11-15T13:51:46;4.95;;;1.60;;
32445;SDS011;18899;50.748;7.102;2022-11-15T13:56:56;5.28;;;1.60;;
32445;SDS011;18899;50.748;7.102;2022-11-15T13:59:30;2.08;;;1.42;;
32445;SDS011;18899;50.748;7.102;2022-11-15T14:01:59;3.58;;;1.33;;
32445;SDS011;18899;50.748;7.102;2022-11-15T14:04:27;4.55;;;1.23;;
32445;SDS011;18899;50.748;7.102;2022-11-15T14:06:56;3.58;;;1.63;;
32445;SDS011;18899;50.748;7.102;2022-11-15T14:11:59;5.18;;;1.63;;
32445;SDS011;18899;50.748;7.102;2022-11-15T14:14:28;4.35;;;1.35;;
32445;SDS011;18899;50.748;7.102;2022-11-15T14:16:55;4.80;;;1.70;;
32445;SDS011;18899;50.748;7.102;2022-11-15T14:22:07;4.28;;;1.30;;
32445;SDS011;18899;50.748;7.102;2022-11-15T14:24:33;3.88;;;1.58;;
32445;SDS011;18899;50.748;7.102;2022-11-15T14:29:57;2.70;;;1.17;;
32445;SDS011;18899;50.748;7.102;2022-11-15T14:32:24;1.60;;;1.00;;
32445;SDS011;18899;50.748;7.102;2022-11-15T14:34:55;2.33;;;1.20;;
32445;SDS011;18899;50.748;7.102;2022-11-15T14:37:28;2.58;;;1.38;;
32445;SDS011;18899;50.748;7.102;2022-11-15T14:39:59;2.30;;;1.10;;
32445;SDS011;18899;50.748;7.102;2022-11-15T14:42:26;2.03;;;0.98;;
32445;SDS011;18899;50.748;7.102;2022-11-15T14:44:52;1.67;;;1.08;;
32445;SDS011;18899;50.748;7.102;2022-11-15T14:47:17;3.22;;;1.23;;
32445;SDS011;18899;50.748;7.102;2022-11-15T14:49:43;4.20;;;1.17;;
32445;SDS011;18899;50.748;7.102;2022-11-15T14:52:28;2.28;;;1.00;;
32445;SDS011;18899;50.748;7.102;2022-11-15T14:54:58;1.95;;;0.90;;
32445;SDS011;18899;50.748;7.102;2022-11-15T14:57:26;2.38;;;1.10;;
32445;SDS011;18899;50.748;7.102;2022-11-15T14:59:52;2.17;;;1.00;;
32445;SDS011;18899;50.748;7.102;2022-11-15T15:02:18;4.85;;;1.80;;
32445;SDS011;18899;50.748;7.102;2022-11-15T15:04:46;22.45;;;2.13;;
32445;SDS011;18899;50.748;7.102;2022-11-15T15:07:11;4.70;;;1.05;;
32445;SDS011;18899;50.748;7.102;2022-11-15T15:09:37;2.70;;;1.00;;
32445;SDS011;18899;50.748;7.102;2022-11-15T15:12:03;2.00;;;1.05;;
32445;SDS011;18899;50.748;7.102;2022-11-15T15:14:29;2.72;;;1.10;;
32445;SDS011;18899;50.748;7.102;2022-11-15T15:16:55;1.73;;;1.02;;
32445;SDS011;18899;50.748;7.102;2022-11-15T15:19:20;2.25;;;1.30;;
32445;SDS011;18899;50.748;7.102;2022-11-15T15:21:46;3.20;;;1.27;;
32445;SDS011;18899;50.748;7.102;2022-11-15T15:24:15;4.00;;;1.00;;
32445;SDS011;18899;50.748;7.102;2022-11-15T15:26:40;1.48;;;1.00;;
32445;SDS011;18899;50.748;7.102;2022-11-15T15:29:08;1.48;;;1.00;;
32445;SDS011;18899;50.748;7.102;2022-11-15T15:31:34;2.15;;;1.05;;
32445;SDS011;18899;50.748;7.102;2022-11-15T15:33:59;1.90;;;1.08;;
32445;SDS011;18899;50.748;7.102;2022-11-15T15:36:25;2.80;;;0.90;;
32445;SDS011;18899;50.748;7.102;2022-11-15T15:38:50;4.18;;;1.90;;
32445;SDS011;18899;50.748;7.102;2022-11-15T15:41:17;2.75;;;1.50;;
32445;SDS011;18899;50.748;7.102;2022-11-15T15:43:43;2.33;;;1.20;;
32445;SDS011;18899;50.748;7.102;2022-11-15T15:46:09;2.03;;;1.25;;
32445;SDS011;18899;50.748;7.102;2022-11-15T15:48:37;3.15;;;1.10;;
32445;SDS011;18899;50.748;7.102;2022-11-15T15:51:04;3.95;;;1.20;;
32445;SDS011;18899;50.748;7.102;2022-11-15T15:53:30;2.38;;;0.98;;
32445;SDS011;18899;50.748;7.102;2022-11-15T15:55:56;1.77;;;1.08;;
32445;SDS011;18899;50.748;7.102;2022-11-15T15:58:22;2.33;;;1.10;;
32445;SDS011;18899;50.748;7.102;2022-11-15T16:00:47;2.75;;;1.50;;
32445;SDS011;18899;50.748;7.102;2022-11-15T16:03:13;2.13;;;1.35;;
32445;SDS011;18899;50.748;7.102;2022-11-15T16:05:38;1.92;;;1.10;;
32445;SDS011;18899;50.748;7.102;2022-11-15T16:08:04;1.85;;;1.05;;
32445;SDS011;18899;50.748;7.102;2022-11-15T16:10:31;1.88;;;1.08;;
32445;SDS011;18899;50.748;7.102;2022-11-15T16:12:58;3.25;;;1.35;;
32445;SDS011;18899;50.748;7.102;2022-11-15T16:15:25;3.80;;;1.25;;
32445;SDS011;18899;50.748;7.102;2022-11-15T16:17:52;3.53;;;1.25;;
32445;SDS011;18899;50.748;7.102;2022-11-15T16:20:30;1.75;;;1.23;;
32445;SDS011;18899;50.748;7.102;2022-11-15T16:22:58;3.17;;;1.10;;
32445;SDS011;18899;50.748;7.102;2022-11-15T16:25:25;2.35;;;1.25;;
32445;SDS011;18899;50.748;7.102;2022-11-15T16:27:50;3.33;;;1.20;;
32445;SDS011;18899;50.748;7.102;2022-11-15T16:30:17;2.47;;;1.23;;
32445;SDS011;18899;50.748;7.102;2022-11-15T16:32:44;2.30;;;1.33;;
32445;SDS011;18899;50.748;7.102;2022-11-15T16:35:10;2.15;;;1.05;;
32445;SDS011;18899;50.748;7.102;2022-11-15T16:37:39;3.88;;;1.48;;
32445;SDS011;18899;50.748;7.102;2022-11-15T16:40:17;3.60;;;1.25;;
32445;SDS011;18899;50.748;7.102;2022-11-15T16:42:49;4.13;;;1.45;;
32445;SDS011;18899;50.748;7.102;2022-11-15T16:45:15;2.60;;;1.63;;
32445;SDS011;18899;50.748;7.102;2022-11-15T16:47:40;3.45;;;1.48;;
32445;SDS011;18899;50.748;7.102;2022-11-15T16:50:09;3.05;;;1.60;;
32445;SDS011;18899;50.748;7.102;2022-11-15T16:52:52;4.57;;;1.42;;
32445;SDS011;18899;50.748;7.102;2022-11-15T16:55:19;4.68;;;1.45;;
32445;SDS011;18899;50.748;7.102;2022-11-15T16:57:45;1.75;;;1.33;;
32445;SDS011;18899;50.748;7.102;2022-11-15T17:00:11;4.00;;;1.48;;
32445;SDS011;18899;50.748;7.102;2022-11-15T17:02:40;3.20;;;1.45;;
32445;SDS011;18899;50.748;7.102;2022-11-15T17:05:07;3.08;;;1.67;;
32445;SDS011;18899;50.748;7.102;2022-11-15T17:07:32;2.58;;;1.35;;
32445;SDS011;18899;50.748;7.102;2022-11-15T17:09:58;5.80;;;1.50;;